Andrews AFB, Maryland
Current Conditions -  °F | °C
As of 6:58 AM on Saturday 25 Oct 2014 (Local Time) from KADW Reporting Station
Clear Clear  
Wind Chill: 42°   Ceiling: Unl
Heat Index: 42°   Visibility: 10mi
Dew Point: 39°   Wind: 2mph
Humidity: 88%   Direction: 270°W
Pressure: 29.95"   Gusts: NA
Location:  38.8°N, 76.87°W
Report Text: KADW 251058Z AUTO 27002KT 10SM CLR 06/04 A2995 RMK AO2 SLP149 T00560037 $
Loading
Personal Weather Stations






























Interactive Weather Map
Tropical Storm Tracking
New forecast layout! Learn more

10-Day Weather Forecast

Advertisements
Track Severe Weather on mobile